Time;durP1;ratioP1;P1;durP2;ratioP2;P2;SDS_P1;SDS_P2;PMS_P1;PMS_P2;Temp;Humidity;BMP_temperature;BMP_pressure;BME280_temperature;BME280_humidity;BME280_pressure;Samples;Min_cycle;Max_cycle;Signal;HPM_P1;HPM_P2
2021/12/15 00:00:24;;;;;;;86.80;40.57;;;;;;;-144.19;100.00;78032.19;5010605;28;20678;-84
2021/12/15 00:02:52;;;;;;;94.88;38.03;;;;;;;-144.19;100.00;78055.81;5010364;28;20057;-85
2021/12/15 00:05:23;;;;;;;94.68;41.85;;;;;;;-144.19;100.00;78051.88;5012230;28;20050;-84
2021/12/15 00:07:53;;;;;;;90.50;39.30;;;;;;;-144.19;100.00;78038.09;5011733;28;20574;-84
2021/12/15 00:10:21;;;;;;;102.53;41.65;;;;;;;-144.19;100.00;78028.22;5010996;28;20053;-86
2021/12/15 00:12:48;;;;;;;98.28;42.00;;;;;;;-144.19;100.00;78036.13;5010226;28;20050;-83
2021/12/15 00:15:16;;;;;;;107.93;42.95;;;;;;;-144.19;100.00;78047.94;5010884;28;20061;-84
2021/12/15 00:17:42;;;;;;;108.80;43.60;;;;;;;-144.19;100.00;78036.13;5011301;28;20049;-84
2021/12/15 00:20:12;;;;;;;104.28;43.25;;;;;;;-144.19;100.00;78032.19;5011947;28;20050;-85
2021/12/15 00:22:40;;;;;;;106.80;43.67;;;;;;;-144.19;100.00;78040.06;5010820;28;20419;-86
2021/12/15 00:25:11;;;;;;;98.97;44.08;;;;;;;-144.19;100.00;78051.88;5010705;28;20073;-86
2021/12/15 00:27:37;;;;;;;109.53;44.33;;;;;;;-144.19;100.00;78047.94;5011622;28;20057;-84
2021/12/15 00:30:07;;;;;;;107.27;44.10;;;;;;;-144.19;100.00;78044.00;5011961;28;20430;-87
2021/12/15 00:32:33;;;;;;;97.22;42.10;;;;;;;-144.19;100.00;78059.75;5010314;28;20060;-85
2021/12/15 00:35:00;;;;;;;92.82;41.00;;;;;;;-144.19;100.00;78063.69;5010305;28;20429;-87
2021/12/15 00:37:26;;;;;;;92.60;41.00;;;;;;;-144.19;100.00;78057.78;5010524;28;20054;-84
2021/12/15 00:39:53;;;;;;;89.03;40.20;;;;;;;-144.19;100.00;78047.94;5010415;28;20052;-84
2021/12/15 00:42:20;;;;;;;94.03;39.78;;;;;;;-144.19;100.00;78055.81;5009892;28;20050;-86
2021/12/15 00:44:46;;;;;;;92.50;40.80;;;;;;;-144.19;100.00;78049.91;5014167;28;20046;-85
2021/12/15 00:47:13;;;;;;;95.60;42.25;;;;;;;-144.19;100.00;78042.03;5013415;28;20050;-85
2021/12/15 00:49:40;;;;;;;88.10;41.65;;;;;;;-144.19;100.00;78042.03;5013254;28;20075;-87
2021/12/15 00:52:07;;;;;;;93.70;43.22;;;;;;;-144.19;100.00;78040.06;5014987;28;20508;-87
2021/12/15 00:54:34;;;;;;;86.47;40.90;;;;;;;-144.19;100.00;78034.16;5013352;28;20050;-84
2021/12/15 00:57:02;;;;;;;82.15;38.08;;;;;;;-144.19;100.00;78059.75;5014320;28;20056;-84
2021/12/15 00:59:28;;;;;;;;;;;;;;;-144.19;100.00;78036.13;5015239;28;20056;-85
2021/12/15 01:01:55;;;;;;;88.47;39.08;;;;;;;-144.19;100.00;78047.94;5013847;28;19921;-85
2021/12/15 01:04:23;;;;;;;91.28;41.75;;;;;;;-144.19;100.00;78044.00;5012762;28;20046;-85
2021/12/15 01:06:54;;;;;;;85.93;37.22;;;;;;;-144.19;100.00;78044.00;5013134;28;20049;-84
2021/12/15 01:09:30;;;;;;;91.35;41.47;;;;;;;-144.19;100.00;78042.03;5013162;28;20053;-86
2021/12/15 01:20:29;;;;;;;80.40;38.63;;;;;;;-144.19;100.00;78036.13;4998548;28;20054;-83
2021/12/15 01:22:58;;;;;;;84.35;39.08;;;;;;;-144.19;100.00;78036.13;5014165;28;20672;-82
2021/12/15 01:25:35;;;;;;;81.03;38.85;;;;;;;-144.19;100.00;78032.19;5014424;28;20049;-86
2021/12/15 01:28:03;;;;;;;76.75;36.42;;;;;;;-144.19;100.00;78030.22;5012292;28;20504;-85
2021/12/15 01:30:34;;;;;;;88.07;38.78;;;;;;;-144.19;100.00;78032.19;5012337;28;20524;-84
2021/12/15 01:33:02;;;;;;;79.68;36.80;;;;;;;-144.19;100.00;78026.28;5012568;28;20504;-85
2021/12/15 01:35:29;;;;;;;76.22;36.00;;;;;;;-144.19;100.00;78024.31;5012544;28;20046;-84
2021/12/15 01:37:57;;;;;;;80.28;38.20;;;;;;;-144.19;100.00;78020.34;5013558;28;20698;-85
2021/12/15 01:40:34;;;;;;;81.97;36.80;;;;;;;-144.19;100.00;78016.41;5013652;28;20049;-85
2021/12/15 01:43:04;;;;;;;84.97;38.58;;;;;;;-144.19;100.00;78030.22;5012810;28;20049;-85
2021/12/15 01:48:16;;;;;;;79.68;37.28;;;;;;;-144.19;100.00;78012.47;5014484;28;20179;-83
2021/12/15 01:50:43;;;;;;;77.55;36.58;;;;;;;-144.19;100.00;78024.31;5014259;28;20054;-84
2021/12/15 01:53:10;;;;;;;80.05;37.05;;;;;;;-144.19;100.00;78014.44;5013711;28;20054;-84
2021/12/15 01:55:37;;;;;;;84.55;38.47;;;;;;;-144.19;100.00;78016.41;5011159;28;20056;-84
2021/12/15 01:58:04;;;;;;;79.05;37.42;;;;;;;-144.19;100.00;78016.41;5012156;28;20527;-86
2021/12/15 02:00:38;;;;;;;78.53;36.95;;;;;;;-144.19;100.00;78020.34;5012664;28;20053;-86
2021/12/15 02:03:05;;;;;;;74.63;37.85;;;;;;;-144.19;100.00;78026.28;5013516;28;20054;-84
2021/12/15 02:05:33;;;;;;;71.70;35.72;;;;;;;-144.19;100.00;78036.13;5013489;28;20492;-84
2021/12/15 02:08:01;;;;;;;82.47;36.83;;;;;;;-144.19;100.00;78032.19;5011714;28;20057;-82
2021/12/15 02:10:30;;;;;;;72.22;34.88;;;;;;;-144.19;100.00;78042.03;5012379;28;20057;-86
2021/12/15 02:12:59;;;;;;;64.85;33.40;;;;;;;-144.19;100.00;78034.16;5013304;28;20064;-83
2021/12/15 02:15:30;;;;;;;77.05;35.80;;;;;;;-144.19;100.00;78036.13;5012435;28;20056;-83
2021/12/15 02:17:58;;;;;;;72.90;34.22;;;;;;;-144.19;100.00;78040.06;5010960;28;20053;-88
2021/12/15 02:20:31;;;;;;;71.45;36.40;;;;;;;-144.19;100.00;78028.22;5013265;28;20056;-84
2021/12/15 02:22:57;;;;;;;75.97;38.17;;;;;;;-144.19;100.00;78032.19;5011956;28;20061;-85
2021/12/15 02:25:24;;;;;;;77.53;38.43;;;;;;;-144.19;100.00;78028.22;5013749;28;20048;-85
2021/12/15 02:27:50;;;;;;;71.82;36.85;;;;;;;-144.19;100.00;78024.31;5011540;28;20427;-87
2021/12/15 02:30:41;;;;;;;77.70;38.50;;;;;;;-144.19;100.00;78044.00;5011515;28;20065;-85
2021/12/15 02:38:41;;;;;;;70.43;36.38;;;;;;;-144.19;100.00;78055.81;5012920;28;20076;-84
2021/12/15 02:41:19;;;;;;;76.85;36.53;;;;;;;-144.19;100.00;78044.00;5005584;28;20397;-83
2021/12/15 02:43:55;;;;;;;78.72;36.67;;;;;;;-144.19;100.00;78032.19;5013219;28;20061;-84
2021/12/15 02:46:23;;;;;;;81.05;37.22;;;;;;;-144.19;100.00;78030.22;5012293;28;20046;-84
2021/12/15 02:48:50;;;;;;;76.28;39.40;;;;;;;-144.19;100.00;78040.06;4991756;28;20057;-84
2021/12/15 02:51:19;;;;;;;84.55;39.67;;;;;;;-144.19;100.00;78040.06;4993660;28;20054;-84
2021/12/15 02:53:46;;;;;;;78.43;38.42;;;;;;;-144.19;100.00;78049.91;4991413;28;20050;-86
2021/12/15 02:56:14;;;;;;;84.80;40.60;;;;;;;-144.19;100.00;78028.22;5007482;28;20049;-84
2021/12/15 02:58:56;;;;;;;79.50;37.70;;;;;;;-144.19;100.00;78032.19;5011143;28;20496;-85
2021/12/15 03:01:34;;;;;;;84.28;40.13;;;;;;;-144.19;100.00;78036.13;5011579;28;20057;-85
2021/12/15 03:06:36;;;;;;;75.35;37.60;;;;;;;-144.19;100.00;78055.81;5012102;28;20053;-85
2021/12/15 03:15:20;;;;;;;76.15;37.95;;;;;;;-144.19;100.00;78055.81;5012205;28;20412;-86
2021/12/15 03:17:22;;;;;;;72.03;38.40;;;;;;;-144.19;100.00;78036.13;5011530;28;20578;-81
2021/12/15 03:19:51;;;;;;;72.83;34.57;;;;;;;-144.19;100.00;78036.13;5011004;28;20050;-85
2021/12/15 03:22:19;;;;;;;78.05;37.42;;;;;;;-144.19;100.00;78032.19;5011072;28;20057;-84
2021/12/15 03:24:45;;;;;;;80.57;37.83;;;;;;;-144.19;100.00;78032.19;5012172;28;20444;-84
2021/12/15 03:27:18;;;;;;;81.68;39.83;;;;;;;-144.19;100.00;78036.13;5010460;28;20049;-87
2021/12/15 03:35:33;;;;;;;79.50;39.53;;;;;;;-144.19;100.00;78040.06;5011938;28;20056;-83
2021/12/15 03:38:00;;;;;;;72.35;36.35;;;;;;;-144.19;100.00;78059.75;5011882;28;20065;-85
2021/12/15 03:40:37;;;;;;;80.40;38.90;;;;;;;-144.19;100.00;78036.13;5012109;28;20050;-87
2021/12/15 03:43:08;;;;;;;70.80;36.40;;;;;;;-144.19;100.00;78057.78;5012440;28;20060;-86
2021/12/15 03:45:39;;;;;;;70.13;34.80;;;;;;;-144.19;100.00;78061.72;5010451;28;20050;-85
2021/12/15 03:48:10;;;;;;;77.50;37.47;;;;;;;-144.19;100.00;78061.72;5010746;28;20068;-84
2021/12/15 03:50:37;;;;;;;73.50;36.58;;;;;;;-144.19;100.00;78044.00;5012194;28;20045;-85
2021/12/15 03:53:05;;;;;;;67.35;34.78;;;;;;;-144.19;100.00;78061.72;5012642;28;20054;-83
2021/12/15 03:55:32;;;;;;;;;;;;;;;-144.19;100.00;78063.69;5009834;28;20507;-86
2021/12/15 03:58:00;;;;;;;69.85;34.17;;;;;;;-144.19;100.00;78059.75;5009827;28;19925;-86
2021/12/15 04:00:28;;;;;;;67.60;35.13;;;;;;;-144.19;100.00;78051.88;5009646;28;20054;-85
2021/12/15 04:02:56;;;;;;;72.68;37.42;;;;;;;-144.19;100.00;78051.88;5010532;28;20057;-84
2021/12/15 04:05:23;;;;;;;;;;;;;;;-144.19;100.00;78051.88;5011013;28;20066;-85
2021/12/15 04:07:50;;;;;;;66.88;34.65;;;;;;;-144.19;100.00;78067.63;5010175;28;19925;-85
2021/12/15 04:10:21;;;;;;;67.72;33.95;;;;;;;-144.19;100.00;78061.72;5010776;28;20053;-84
2021/12/15 04:12:48;;;;;;;69.03;33.13;;;;;;;-144.19;100.00;78075.50;5009393;28;20053;-86
2021/12/15 04:18:03;;;;;;;74.25;37.40;;;;;;;-144.19;100.00;78059.75;5014607;28;20060;-89
2021/12/15 04:20:33;;;;;;;63.17;33.85;;;;;;;-144.19;100.00;78075.50;5017719;28;20053;-87
2021/12/15 04:23:02;;;;;;;69.95;33.72;;;;;;;-144.19;100.00;78079.44;5015412;28;20056;-84
2021/12/15 04:25:32;;;;;;;68.78;35.15;;;;;;;-144.19;100.00;78079.44;5011693;28;20054;-84
2021/12/15 04:28:26;;;;;;;69.70;34.75;;;;;;;-144.19;100.00;78079.44;5015623;28;20506;-85
2021/12/15 04:30:58;;;;;;;67.60;33.85;;;;;;;-144.19;100.00;78093.22;4995407;28;20061;-90
2021/12/15 04:33:45;;;;;;;69.53;33.97;;;;;;;-144.19;100.00;78083.38;4994320;28;20058;-84
2021/12/15 04:36:13;;;;;;;70.57;35.00;;;;;;;-144.19;100.00;78071.56;4995706;28;20057;-86
2021/12/15 04:38:41;;;;;;;69.72;35.05;;;;;;;-144.19;100.00;78085.34;5004239;28;20054;-88
2021/12/15 04:41:11;;;;;;;75.15;36.00;;;;;;;-144.19;100.00;78087.31;5015175;28;20046;-85
2021/12/15 04:44:00;;;;;;;78.65;37.88;;;;;;;-144.19;100.00;78081.41;5014274;28;20054;-87
2021/12/15 04:46:33;;;;;;;73.93;36.60;;;;;;;-144.19;100.00;78087.31;5015573;28;20086;-87
2021/12/15 04:49:02;;;;;;;70.75;36.78;;;;;;;-144.19;100.00;78099.13;5016054;28;20496;-85
2021/12/15 04:51:30;;;;;;;69.40;33.85;;;;;;;-144.19;100.00;78085.34;5016285;28;20405;-85
2021/12/15 04:53:57;;;;;;;72.07;34.92;;;;;;;-144.19;100.00;78091.25;5013841;28;20053;-88
2021/12/15 04:56:25;;;;;;;;;;;;;;;-144.19;100.00;78095.19;5014692;28;20049;-86
2021/12/15 04:58:54;;;;;;;67.18;33.13;;;;;;;-144.19;100.00;78087.31;5015016;28;19921;-84
2021/12/15 05:01:23;;;;;;;76.85;37.80;;;;;;;-144.19;100.00;78087.31;5016254;28;20058;-87
2021/12/15 05:03:50;;;;;;;75.05;35.35;;;;;;;-144.19;100.00;78095.19;5014015;28;20054;-86
2021/12/15 05:06:20;;;;;;;67.97;32.80;;;;;;;-144.19;100.00;78091.25;5013973;28;20081;-85
2021/12/15 05:08:47;;;;;;;67.05;33.20;;;;;;;-144.19;100.00;78099.13;5014481;28;20493;-86
2021/12/15 05:11:14;;;;;;;64.20;31.10;;;;;;;-144.19;100.00;78079.44;5013628;28;20132;-84
2021/12/15 05:13:40;;;;;;;78.82;34.53;;;;;;;-144.19;100.00;78081.41;5015424;28;20053;-86
2021/12/15 05:16:07;;;;;;;69.00;35.03;;;;;;;-144.19;100.00;78091.25;5013825;28;20050;-87
2021/12/15 05:18:35;;;;;;;67.18;35.13;;;;;;;-144.19;100.00;78089.28;5013887;28;20050;-85
2021/12/15 05:21:04;;;;;;;62.35;32.15;;;;;;;-144.19;100.00;78095.19;5014032;28;20120;-87
2021/12/15 05:23:35;;;;;;;66.10;33.90;;;;;;;-144.19;100.00;78099.13;5014307;28;20057;-86
2021/12/15 05:26:03;;;;;;;62.60;30.03;;;;;;;-144.19;100.00;78095.19;5013642;28;20596;-87
2021/12/15 05:28:30;;;;;;;55.95;29.92;;;;;;;-144.19;100.00;78089.28;5015982;28;20058;-85
2021/12/15 05:30:57;;;;;;;61.92;31.40;;;;;;;-144.19;100.00;78103.06;5014800;28;20072;-87
2021/12/15 05:33:24;;;;;;;54.72;29.27;;;;;;;-144.19;100.00;78095.19;5014170;28;20086;-87
2021/12/15 05:35:53;;;;;;;52.33;26.60;;;;;;;-144.19;100.00;78107.00;5016242;28;20045;-85
2021/12/15 05:38:21;;;;;;;58.58;30.90;;;;;;;-144.19;100.00;78099.13;5015044;28;20053;-89
2021/12/15 05:40:48;;;;;;;55.67;28.85;;;;;;;-144.19;100.00;78103.06;5015181;28;20148;-84
2021/12/15 05:43:14;;;;;;;62.00;28.98;;;;;;;-144.19;100.00;78095.19;5014781;28;20066;-86
2021/12/15 05:45:42;;;;;;;56.87;30.47;;;;;;;-144.19;100.00;78097.16;5014570;28;20060;-88
2021/12/15 05:48:12;;;;;;;56.80;30.08;;;;;;;-144.19;100.00;78107.00;5014158;28;20065;-84
2021/12/15 05:50:39;;;;;;;54.20;29.23;;;;;;;-144.19;100.00;78101.09;5014431;28;20053;-88
2021/12/15 05:53:06;;;;;;;55.33;30.08;;;;;;;-144.19;100.00;78099.13;5015425;28;20054;-85
2021/12/15 05:55:36;;;;;;;56.85;30.73;;;;;;;-144.19;100.00;78095.19;5013316;28;20046;-85
2021/12/15 05:58:04;;;;;;;51.40;27.70;;;;;;;-144.19;100.00;78095.19;5014067;28;20060;-86
2021/12/15 06:00:33;;;;;;;54.53;28.77;;;;;;;-144.19;100.00;78101.09;5014596;28;20137;-85
2021/12/15 06:03:01;;;;;;;56.25;30.60;;;;;;;-144.19;100.00;78099.13;5015905;28;20049;-87
2021/12/15 06:05:28;;;;;;;61.97;31.42;;;;;;;-144.19;100.00;78097.16;5012760;28;20100;-85
2021/12/15 06:07:54;;;;;;;52.43;29.83;;;;;;;-144.19;100.00;78097.16;5014566;28;20046;-86
2021/12/15 06:10:26;;;;;;;54.03;29.03;;;;;;;-144.19;100.00;78107.00;5012896;28;20050;-85
2021/12/15 06:12:55;;;;;;;52.83;29.52;;;;;;;-144.19;100.00;78099.13;5010552;28;20056;-84
2021/12/15 06:15:25;;;;;;;53.47;30.85;;;;;;;-144.19;100.00;78097.16;5013751;28;20049;-84
2021/12/15 06:17:57;;;;;;;56.65;29.63;;;;;;;-144.19;100.00;78077.47;5012745;28;20052;-85
2021/12/15 06:20:25;;;;;;;58.28;30.77;;;;;;;-144.19;100.00;78091.25;5013437;28;20050;-87
2021/12/15 06:22:53;;;;;;;;;;;;;;;-144.19;100.00;78099.13;5013438;28;20054;-86
2021/12/15 06:25:20;;;;;;;;;;;;;;;-144.19;100.00;78087.31;5013836;28;19947;-87
2021/12/15 06:27:47;;;;;;;54.10;29.05;;;;;;;-144.19;100.00;78099.13;5011767;28;19921;-84
2021/12/15 06:30:13;;;;;;;55.33;29.63;;;;;;;-144.19;100.00;78118.81;5012651;28;20053;-85
2021/12/15 06:32:40;;;;;;;54.25;30.15;;;;;;;-144.19;100.00;78107.00;5012904;28;20054;-85
2021/12/15 06:35:08;;;;;;;53.85;28.48;;;;;;;-144.19;100.00;78110.94;5013843;28;20050;-86
2021/12/15 06:37:34;;;;;;;52.28;28.95;;;;;;;-144.19;100.00;78110.94;5013043;28;20050;-83
2021/12/15 06:40:07;;;;;;;53.67;29.90;;;;;;;-144.19;100.00;78101.09;5012855;28;20050;-84
2021/12/15 06:42:35;;;;;;;59.97;32.13;;;;;;;-144.19;100.00;78097.16;5012223;28;20050;-85
2021/12/15 06:45:06;;;;;;;54.28;30.65;;;;;;;-144.19;100.00;78110.94;5013097;28;20058;-85
2021/12/15 06:57:15;;;;;;;59.35;32.42;;;;;;;-144.19;100.00;78118.81;5011738;28;20056;-86
2021/12/15 06:58:37;;;;;;;54.05;29.27;;;;;;;-144.19;100.00;78107.00;5012977;28;20049;-87
2021/12/15 07:01:04;;;;;;;49.40;27.67;;;;;;;-144.19;100.00;78108.97;5011486;28;20076;-85
2021/12/15 07:03:31;;;;;;;56.60;29.30;;;;;;;-144.19;100.00;78118.81;5012275;28;20081;-83
2021/12/15 07:05:57;;;;;;;54.35;30.85;;;;;;;-144.19;100.00;78128.66;5011602;28;20062;-84
2021/12/15 07:08:27;;;;;;;57.70;31.10;;;;;;;-144.19;100.00;78130.63;5012683;28;20060;-84
2021/12/15 07:10:53;;;;;;;52.42;29.70;;;;;;;-144.19;100.00;78138.50;5014129;28;20141;-84
2021/12/15 07:13:21;;;;;;;59.28;34.78;;;;;;;-144.19;100.00;78120.78;5011627;28;20062;-84
2021/12/15 07:15:49;;;;;;;56.47;32.00;;;;;;;-144.19;100.00;78132.59;5011034;28;20054;-83
2021/12/15 07:18:25;;;;;;;57.42;32.35;;;;;;;-144.19;100.00;78134.56;5011731;28;20136;-82
2021/12/15 07:20:54;;;;;;;62.90;34.03;;;;;;;-144.19;100.00;78126.69;5008464;28;20054;-85
2021/12/15 07:23:22;;;;;;;62.00;33.17;;;;;;;-144.19;100.00;78140.47;4992349;28;20058;-87
2021/12/15 07:25:50;;;;;;;64.00;35.42;;;;;;;-144.19;100.00;78136.53;4991247;28;20060;-84
2021/12/15 07:28:19;;;;;;;61.15;34.33;;;;;;;-144.19;100.00;78132.59;4991769;28;20050;-82
2021/12/15 07:30:47;;;;;;;61.90;33.35;;;;;;;-144.19;100.00;78142.44;4991735;28;20073;-87
2021/12/15 07:33:13;;;;;;;62.47;35.92;;;;;;;-144.19;100.00;78130.63;4991898;28;20061;-82
2021/12/15 07:35:41;;;;;;;62.47;33.53;;;;;;;-144.19;100.00;78122.75;5005660;28;20054;-86
2021/12/15 07:38:08;;;;;;;64.00;33.35;;;;;;;-144.19;100.00;78146.38;5010531;28;20523;-84
2021/12/15 07:40:35;;;;;;;58.90;32.80;;;;;;;-144.19;100.00;78134.56;5011184;28;20424;-84
2021/12/15 07:43:08;;;;;;;64.47;35.25;;;;;;;-144.19;100.00;78134.56;5001728;28;20041;-85
2021/12/15 07:45:39;;;;;;;56.55;34.00;;;;;;;-144.19;100.00;78146.38;5009883;28;20542;-87
2021/12/15 07:48:07;;;;;;;64.40;34.97;;;;;;;-144.19;100.00;78144.41;5011716;28;20443;-87
2021/12/15 07:50:34;;;;;;;64.88;35.58;;;;;;;-144.19;100.00;78152.28;5010607;28;20053;-84
2021/12/15 07:53:02;;;;;;;56.00;31.98;;;;;;;-144.19;100.00;78144.41;5011701;28;20057;-86
2021/12/15 07:55:28;;;;;;;73.90;37.28;;;;;;;-144.19;100.00;78152.28;5013005;28;20049;-86
2021/12/15 07:57:55;;;;;;;67.83;36.67;;;;;;;-144.19;100.00;78152.28;5015257;28;20042;-88
2021/12/15 08:00:22;;;;;;;62.60;35.22;;;;;;;-144.19;100.00;78162.13;5016949;28;20045;-85
2021/12/15 08:02:49;;;;;;;58.28;34.28;;;;;;;-144.19;100.00;78166.06;5014883;28;20061;-88
2021/12/15 08:05:16;;;;;;;66.90;35.92;;;;;;;-144.19;100.00;78162.13;5015275;28;20050;-87
2021/12/15 08:07:43;;;;;;;59.67;35.53;;;;;;;-144.19;100.00;78170.00;5015063;28;20054;-85
2021/12/15 08:10:11;;;;;;;56.90;31.45;;;;;;;-144.19;100.00;78158.19;5014250;28;20053;-88
2021/12/15 08:12:40;;;;;;;68.63;38.22;;;;;;;-144.19;100.00;78154.25;5015688;28;20061;-86
2021/12/15 08:15:08;;;;;;;62.65;35.67;;;;;;;-144.19;100.00;78154.25;5014755;28;20046;-86
2021/12/15 08:17:38;;;;;;;65.20;34.67;;;;;;;-144.19;100.00;78162.13;5015982;28;20076;-87
2021/12/15 08:20:09;;;;;;;60.53;35.10;;;;;;;-144.19;100.00;78160.16;5014881;28;20050;-83
2021/12/15 08:22:38;;;;;;;58.55;34.78;;;;;;;-144.19;100.00;78160.16;5016683;28;20081;-85
2021/12/15 08:25:07;;;;;;;65.88;36.50;;;;;;;-144.19;100.00;78156.22;5014504;28;20057;-84
2021/12/15 08:27:33;;;;;;;68.50;35.17;;;;;;;-144.19;100.00;78154.25;5016412;28;20057;-85
2021/12/15 08:30:00;;;;;;;62.35;31.92;;;;;;;-144.19;100.00;78164.09;5014905;28;20409;-86
2021/12/15 08:32:26;;;;;;;60.13;34.13;;;;;;;-144.19;100.00;78170.00;5016382;28;20137;-86
2021/12/15 08:34:52;;;;;;;58.57;32.97;;;;;;;-144.19;100.00;78170.00;5011540;28;20046;-85
2021/12/15 08:37:19;;;;;;;59.30;33.17;;;;;;;-144.19;100.00;78177.91;5014888;28;20136;-83
2021/12/15 08:39:46;;;;;;;66.57;35.37;;;;;;;-144.19;100.00;78160.16;5015481;28;20054;-84
2021/12/15 08:42:13;;;;;;;65.93;35.58;;;;;;;-144.19;100.00;78154.25;5015954;28;20057;-85
2021/12/15 08:44:40;;;;;;;58.20;31.38;;;;;;;-144.19;100.00;78162.13;5013719;28;20057;-85
2021/12/15 08:47:07;;;;;;;63.88;32.33;;;;;;;-144.19;100.00;78175.94;5015402;28;20052;-84
2021/12/15 08:49:34;;;;;;;64.97;33.55;;;;;;;-144.19;100.00;78154.25;5013835;28;21339;-84
2021/12/15 08:52:01;;;;;;;56.20;31.08;;;;;;;-144.19;100.00;78181.84;5014226;28;20496;-85
2021/12/15 08:54:29;;;;;;;60.90;30.70;;;;;;;-144.19;100.00;78171.97;5014776;28;20057;-84
2021/12/15 08:56:55;;;;;;;;;;;;;;;-144.19;100.00;78173.94;5014583;28;20049;-87
2021/12/15 08:59:23;;;;;;;59.00;29.48;;;;;;;-144.19;100.00;78179.88;5015930;28;20384;-83
2021/12/15 09:01:50;;;;;;;64.68;33.90;;;;;;;-144.19;100.00;78170.00;5014429;28;20052;-88
2021/12/15 09:04:17;;;;;;;58.03;31.42;;;;;;;-144.19;100.00;78164.09;5015501;28;20475;-88
2021/12/15 09:06:45;;;;;;;57.22;31.00;;;;;;;-144.19;100.00;78166.06;5015359;28;20046;-88
2021/12/15 09:09:14;;;;;;;61.97;32.90;;;;;;;-144.19;100.00;78156.22;5014913;28;20046;-84
2021/12/15 09:11:42;;;;;;;63.92;31.08;;;;;;;-144.19;100.00;78152.28;5015853;28;20049;-86
2021/12/15 09:14:11;;;;;;;63.08;32.60;;;;;;;-144.19;100.00;78166.06;5014512;28;20409;-86
2021/12/15 09:16:41;;;;;;;60.38;33.60;;;;;;;-144.19;100.00;78152.28;5013501;28;20045;-86
2021/12/15 09:19:07;;;;;;;65.40;36.25;;;;;;;-144.19;100.00;78158.19;5013484;28;20077;-88
2021/12/15 09:21:36;;;;;;;67.18;35.55;;;;;;;-144.19;100.00;78154.25;5014432;28;20111;-88
2021/12/15 09:24:06;;;;;;;64.25;33.25;;;;;;;-144.19;100.00;78156.22;5016196;28;20060;-85
2021/12/15 09:26:34;;;;;;;63.60;33.78;;;;;;;-144.19;100.00;78166.06;5012936;28;20042;-85
2021/12/15 09:29:02;;;;;;;67.30;35.15;;;;;;;-144.19;100.00;78160.16;5013553;28;20061;-85
2021/12/15 09:31:29;;;;;;;58.67;31.27;;;;;;;-144.19;100.00;78154.25;5010983;28;20070;-83
2021/12/15 09:33:57;;;;;;;60.10;32.25;;;;;;;-144.19;100.00;78158.19;5013521;28;20415;-85
2021/12/15 09:36:24;;;;;;;65.32;34.08;;;;;;;-144.19;100.00;78150.31;5012436;28;20046;-83
2021/12/15 09:38:56;;;;;;;70.93;36.38;;;;;;;-144.19;100.00;78146.38;5010654;28;20511;-85
2021/12/15 09:41:24;;;;;;;64.50;33.38;;;;;;;-144.19;100.00;78152.28;5014101;28;20233;-84
2021/12/15 09:43:53;;;;;;;56.92;30.65;;;;;;;-144.19;100.00;78170.00;5008939;28;20072;-86
2021/12/15 09:57:22;;;;;;;54.50;30.55;;;;;;;-144.19;100.00;78118.81;5014039;28;20077;-88
2021/12/15 10:02:59;;;;;;;62.33;31.35;;;;;;;-144.19;100.00;78126.69;5014281;28;20053;-86
2021/12/15 10:19:37;;;;;;;66.15;34.13;;;;;;;-144.19;100.00;78144.41;4994745;28;20050;-89
2021/12/15 10:22:13;;;;;;;65.30;32.20;;;;;;;-144.19;100.00;78158.19;4995466;28;20517;-88
2021/12/15 10:24:50;;;;;;;62.20;32.92;;;;;;;-144.19;100.00;78134.56;4995122;28;20050;-85
2021/12/15 10:27:31;;;;;;;67.60;34.08;;;;;;;-144.19;100.00;78148.34;5012535;28;20050;-86
2021/12/15 10:30:10;;;;;;;67.47;34.08;;;;;;;-144.19;100.00;78134.56;5013485;28;20060;-84
2021/12/15 10:32:39;;;;;;;62.45;33.85;;;;;;;-144.19;100.00;78158.19;5015525;28;20064;-85
2021/12/15 10:35:13;;;;;;;67.45;34.50;;;;;;;-144.19;100.00;78134.56;5012652;28;20058;-86
2021/12/15 10:37:40;;;;;;;68.85;33.13;;;;;;;-144.19;100.00;78122.75;5011225;28;20057;-85
2021/12/15 10:40:15;;;;;;;66.90;32.03;;;;;;;-144.19;100.00;78124.72;5005860;28;20058;-85
2021/12/15 10:42:42;;;;;;;59.00;29.02;;;;;;;-144.19;100.00;78130.63;5011221;28;20127;-88
2021/12/15 10:45:11;;;;;;;62.13;29.60;;;;;;;-144.19;100.00;78130.63;5011021;28;20049;-89
2021/12/15 10:47:51;;;;;;;67.40;31.13;;;;;;;-144.19;100.00;78120.78;5012456;28;20057;-87
2021/12/15 10:50:21;;;;;;;61.45;31.20;;;;;;;-144.19;100.00;78116.84;5013803;28;20518;-86
2021/12/15 10:52:53;;;;;;;68.95;30.50;;;;;;;-144.19;100.00;78114.88;5012605;28;20049;-86
2021/12/15 10:55:26;;;;;;;63.08;33.78;;;;;;;-144.19;100.00;78118.81;5011704;28;20069;-90
2021/12/15 10:57:53;;;;;;;68.78;32.83;;;;;;;-144.19;100.00;78126.69;5012673;28;20054;-84
2021/12/15 11:00:20;;;;;;;72.40;32.88;;;;;;;-144.19;100.00;78120.78;5010658;28;20053;-86
2021/12/15 11:02:47;;;;;;;75.30;34.72;;;;;;;-144.19;100.00;78128.66;5011444;28;20050;-86
2021/12/15 11:05:18;;;;;;;68.65;31.83;;;;;;;-144.19;100.00;78114.88;5012596;28;20133;-88
2021/12/15 11:07:54;;;;;;;74.32;35.60;;;;;;;-144.19;100.00;78110.94;5012394;28;20050;-85
2021/12/15 11:10:31;;;;;;;69.10;33.25;;;;;;;-144.19;100.00;78108.97;5013493;28;20058;-87
2021/12/15 11:13:01;;;;;;;68.72;32.55;;;;;;;-144.19;100.00;78116.84;5011720;28;20054;-82
2021/12/15 11:15:49;;;;;;;66.05;33.30;;;;;;;-144.19;100.00;78107.00;5012828;28;20046;-84
2021/12/15 11:18:17;;;;;;;73.53;34.58;;;;;;;-144.19;100.00;78103.06;5012604;28;20052;-86
2021/12/15 11:20:47;;;;;;;67.00;31.90;;;;;;;-144.19;100.00;78108.97;5014975;28;20056;-85
2021/12/15 11:23:16;;;;;;;69.82;33.15;;;;;;;-144.19;100.00;78120.78;5013474;28;20430;-83
2021/12/15 11:25:48;;;;;;;72.13;32.67;;;;;;;-144.19;100.00;78110.94;5011555;28;20054;-86
2021/12/15 11:28:32;;;;;;;82.03;35.97;;;;;;;-144.19;100.00;78107.00;5011390;28;20482;-85
2021/12/15 11:31:24;;;;;;;75.50;36.05;;;;;;;-144.19;100.00;78110.94;5012142;28;20068;-85
2021/12/15 11:33:56;;;;;;;68.43;34.50;;;;;;;-144.19;100.00;78114.88;5011711;28;20428;-86
2021/12/15 11:36:33;;;;;;;77.28;35.17;;;;;;;-144.19;100.00;78120.78;5011698;28;20054;-85
2021/12/15 11:39:04;;;;;;;70.03;32.60;;;;;;;-144.19;100.00;78103.06;5026964;28;20120;-86
2021/12/15 11:41:36;;;;;;;66.35;31.65;;;;;;;-144.19;100.00;78095.19;5012892;28;20061;-84
2021/12/15 11:44:15;;;;;;;71.25;32.70;;;;;;;-144.19;100.00;78083.38;5011491;28;20050;-85
2021/12/15 11:46:58;;;;;;;69.15;31.33;;;;;;;-144.19;100.00;78097.16;5012490;28;20046;-86
2021/12/15 11:49:34;;;;;;;65.03;30.85;;;;;;;-144.19;100.00;78081.41;5008810;28;20050;-86
2021/12/15 11:52:05;;;;;;;65.35;30.48;;;;;;;-144.19;100.00;78079.44;5012176;28;20052;-88
2021/12/15 11:54:39;;;;;;;64.85;30.38;;;;;;;-144.19;100.00;78069.59;5003403;28;20435;-86
2021/12/15 11:57:27;;;;;;;69.22;34.63;;;;;;;-144.19;100.00;78079.44;5010023;28;20042;-87
2021/12/15 11:59:59;;;;;;;54.00;27.30;;;;;;;-144.19;100.00;78095.19;5009352;28;20049;-86
2021/12/15 12:02:36;;;;;;;66.07;33.28;;;;;;;-144.19;100.00;78083.38;5012224;28;20046;-87
2021/12/15 12:05:13;;;;;;;62.23;30.33;;;;;;;-144.19;100.00;78079.44;5010950;28;20419;-85
2021/12/15 12:07:57;;;;;;;61.28;30.88;;;;;;;-144.19;100.00;78075.50;5010748;28;20461;-86
2021/12/15 12:10:30;;;;;;;49.60;25.98;;;;;;;-144.19;100.00;78067.63;5014355;28;20540;-85
2021/12/15 12:13:08;;;;;;;54.35;27.73;;;;;;;-144.19;100.00;78075.50;5011581;28;20054;-84
2021/12/15 12:15:44;;;;;;;52.85;29.27;;;;;;;-144.19;100.00;78067.63;5010497;28;20069;-85
2021/12/15 12:18:17;;;;;;;57.22;29.45;;;;;;;-144.19;100.00;78067.63;5011916;28;20060;-85